createdAt,value
2023-02-16T00:00:22.037Z,100.00
2023-02-16T00:02:49.883Z,100.00
2023-02-16T00:05:25.902Z,100.00
2023-02-16T00:07:54.624Z,100.00
2023-02-16T00:10:22.776Z,100.00
2023-02-16T00:13:09.347Z,100.00
2023-02-16T00:15:36.829Z,100.00
2023-02-16T00:18:15.083Z,100.00
2023-02-16T00:20:42.547Z,100.00
2023-02-16T00:23:09.980Z,100.00
2023-02-16T00:25:37.596Z,100.00
2023-02-16T00:28:10.655Z,100.00
2023-02-16T00:30:39.668Z,100.00
2023-02-16T00:33:19.671Z,100.00
2023-02-16T00:35:47.930Z,100.00
2023-02-16T00:38:16.865Z,100.00
2023-02-16T00:40:44.581Z,100.00
2023-02-16T00:43:28.161Z,100.00
2023-02-16T00:45:56.962Z,100.00
2023-02-16T00:48:24.643Z,100.00
2023-02-16T00:50:54.392Z,100.00
2023-02-16T00:53:21.879Z,100.00
2023-02-16T00:55:49.299Z,100.00
2023-02-16T00:58:29.933Z,100.00
2023-02-16T01:01:07.495Z,100.00
2023-02-16T01:03:35.569Z,100.00
2023-02-16T01:06:23.868Z,100.00
2023-02-16T01:09:12.917Z,100.00
2023-02-16T01:11:40.446Z,100.00
2023-02-16T01:14:12.709Z,100.00
2023-02-16T01:16:42.099Z,100.00
2023-02-16T01:19:12.304Z,100.00
2023-02-16T01:21:40.231Z,100.00
2023-02-16T01:24:08.262Z,100.00
2023-02-16T01:26:40.967Z,100.00
2023-02-16T01:29:14.986Z,100.00
2023-02-16T01:31:43.161Z,100.00
2023-02-16T01:34:11.238Z,100.00
2023-02-16T01:36:46.673Z,100.00
2023-02-16T01:39:19.304Z,100.00
2023-02-16T01:42:09.650Z,100.00
2023-02-16T01:45:03.448Z,100.00
2023-02-16T01:47:47.916Z,100.00
2023-02-16T01:50:43.400Z,100.00
2023-02-16T01:53:51.787Z,100.00
2023-02-16T01:56:43.552Z,100.00
2023-02-16T01:59:39.724Z,100.00
2023-02-16T02:02:34.898Z,100.00
2023-02-16T02:05:37.809Z,100.00
2023-02-16T02:08:20.301Z,100.00
2023-02-16T02:11:14.727Z,100.00
2023-02-16T02:13:50.015Z,100.00
2023-02-16T02:16:21.503Z,100.00
2023-02-16T02:18:49.296Z,100.00
2023-02-16T02:22:14.367Z,100.00
2023-02-16T02:24:56.718Z,100.00
2023-02-16T02:27:26.966Z,100.00
2023-02-16T02:30:38.421Z,100.00
2023-02-16T02:33:20.831Z,100.00
2023-02-16T02:36:26.910Z,100.00
2023-02-16T02:39:17.383Z,100.00
2023-02-16T02:42:06.598Z,100.00
2023-02-16T02:44:50.469Z,100.00
2023-02-16T02:47:18.572Z,100.00
2023-02-16T02:49:53.329Z,100.00
2023-02-16T02:52:22.617Z,100.00
2023-02-16T02:55:09.910Z,100.00
2023-02-16T02:58:06.376Z,100.00
2023-02-16T03:00:44.552Z,100.00
2023-02-16T03:03:37.639Z,100.00
2023-02-16T03:06:18.409Z,100.00
2023-02-16T03:08:50.169Z,100.00
2023-02-16T03:11:48.259Z,100.00
2023-02-16T03:14:26.823Z,100.00
2023-02-16T03:17:29.297Z,100.00
2023-02-16T03:20:17.987Z,100.00
2023-02-16T03:23:04.814Z,100.00
2023-02-16T03:25:56.220Z,100.00
2023-02-16T03:28:46.194Z,100.00
2023-02-16T03:31:23.512Z,100.00
2023-02-16T03:33:55.234Z,100.00
2023-02-16T03:36:29.824Z,100.00
2023-02-16T03:38:58.442Z,100.00
2023-02-16T03:41:27.084Z,100.00
2023-02-16T03:43:54.607Z,100.00
2023-02-16T03:46:22.109Z,100.00
2023-02-16T03:48:49.680Z,100.00
2023-02-16T03:51:17.186Z,100.00
2023-02-16T03:53:44.852Z,100.00
2023-02-16T03:56:12.369Z,100.00
2023-02-16T03:58:39.873Z,100.00
2023-02-16T04:01:07.452Z,100.00
2023-02-16T04:03:35.075Z,100.00
2023-02-16T04:06:02.507Z,100.00
2023-02-16T04:08:30.162Z,100.00
2023-02-16T04:10:58.031Z,100.00
2023-02-16T04:13:25.476Z,100.00
2023-02-16T04:15:53.037Z,100.00
2023-02-16T04:18:20.546Z,100.00
2023-02-16T04:20:47.912Z,100.00
2023-02-16T04:23:15.466Z,100.00
2023-02-16T04:25:43.047Z,100.00
2023-02-16T04:28:10.581Z,100.00
2023-02-16T04:30:38.285Z,100.00
2023-02-16T04:33:05.834Z,100.00
2023-02-16T04:35:33.343Z,100.00
2023-02-16T04:38:00.848Z,100.00
2023-02-16T04:40:28.318Z,100.00
2023-02-16T04:42:55.902Z,100.00
2023-02-16T04:45:23.337Z,100.00
2023-02-16T04:47:50.872Z,100.00
2023-02-16T04:50:18.311Z,100.00
2023-02-16T04:52:45.858Z,100.00
2023-02-16T04:55:13.242Z,100.00
2023-02-16T04:57:41.709Z,100.00
2023-02-16T05:00:12.042Z,100.00
2023-02-16T05:02:39.709Z,100.00
2023-02-16T05:05:07.736Z,100.00
2023-02-16T05:07:36.321Z,100.00
2023-02-16T05:10:04.666Z,100.00
2023-02-16T05:12:51.092Z,100.00
2023-02-16T05:15:18.805Z,100.00
2023-02-16T05:17:46.522Z,100.00
2023-02-16T05:20:14.308Z,100.00
2023-02-16T05:22:43.652Z,100.00
2023-02-16T05:25:11.164Z,100.00
2023-02-16T05:27:38.688Z,100.00
2023-02-16T05:30:06.724Z,100.00
2023-02-16T05:32:34.133Z,100.00
2023-02-16T05:35:01.785Z,100.00
2023-02-16T05:37:29.257Z,100.00
2023-02-16T05:39:56.971Z,100.00
2023-02-16T05:42:24.510Z,100.00
2023-02-16T05:44:51.928Z,100.00
2023-02-16T05:47:19.370Z,100.00
2023-02-16T05:53:53.033Z,100.00
2023-02-16T05:56:21.321Z,100.00
2023-02-16T05:58:48.938Z,100.00
2023-02-16T06:01:16.623Z,100.00
2023-02-16T06:03:44.480Z,100.00
2023-02-16T06:06:12.130Z,100.00
2023-02-16T06:08:39.636Z,100.00
2023-02-16T06:11:27.638Z,100.00
2023-02-16T06:13:58.247Z,100.00
2023-02-16T06:16:27.233Z,100.00
2023-02-16T06:18:55.327Z,100.00
2023-02-16T06:21:23.769Z,100.00
2023-02-16T06:23:51.552Z,100.00
2023-02-16T06:26:19.227Z,100.00
2023-02-16T06:28:46.678Z,100.00
2023-02-16T06:31:14.766Z,100.00
2023-02-16T06:33:43.505Z,100.00
2023-02-16T06:36:11.847Z,100.00
2023-02-16T06:38:39.708Z,100.00
2023-02-16T06:41:07.602Z,100.00
2023-02-16T06:43:35.314Z,100.00
2023-02-16T06:46:02.924Z,100.00
2023-02-16T06:48:30.709Z,100.00
2023-02-16T06:50:58.374Z,100.00
2023-02-16T06:53:25.761Z,100.00
2023-02-16T06:55:53.358Z,100.00
2023-02-16T06:58:20.774Z,100.00
2023-02-16T07:00:48.368Z,100.00
2023-02-16T07:03:16.140Z,100.00
2023-02-16T07:05:44.241Z,100.00
2023-02-16T07:08:11.649Z,100.00
2023-02-16T07:10:50.224Z,100.00
2023-02-16T07:13:18.014Z,100.00
2023-02-16T07:15:45.936Z,100.00
2023-02-16T07:18:13.383Z,100.00
2023-02-16T07:20:40.790Z,100.00
2023-02-16T07:23:08.292Z,100.00
2023-02-16T07:25:37.092Z,100.00
2023-02-16T07:28:04.785Z,100.00
2023-02-16T07:30:32.240Z,100.00
2023-02-16T07:33:02.510Z,100.00
2023-02-16T07:35:30.033Z,100.00
2023-02-16T07:37:57.532Z,100.00
2023-02-16T07:40:25.299Z,100.00
2023-02-16T07:42:52.741Z,100.00
2023-02-16T07:45:20.177Z,100.00
2023-02-16T07:47:47.597Z,100.00
2023-02-16T07:50:15.130Z,100.00
2023-02-16T07:52:42.655Z,100.00
2023-02-16T07:55:11.532Z,100.00
2023-02-16T07:57:40.199Z,100.00
2023-02-16T08:00:08.606Z,100.00
2023-02-16T08:02:41.921Z,100.00
2023-02-16T08:05:09.918Z,100.00
2023-02-16T08:07:37.405Z,100.00
2023-02-16T08:10:06.031Z,100.00
2023-02-16T08:12:33.540Z,100.00
2023-02-16T08:15:01.037Z,100.00
2023-02-16T08:17:28.454Z,100.00
2023-02-16T08:19:55.993Z,100.00
2023-02-16T08:22:24.084Z,100.00
2023-02-16T08:24:51.595Z,100.00
2023-02-16T08:27:19.077Z,100.00
2023-02-16T08:29:46.704Z,100.00
2023-02-16T08:32:14.774Z,100.00
2023-02-16T08:34:43.480Z,100.00
2023-02-16T08:37:13.166Z,100.00
2023-02-16T08:39:41.649Z,100.00
2023-02-16T08:42:13.420Z,100.00
2023-02-16T08:44:42.520Z,100.00
2023-02-16T08:47:11.102Z,100.00
2023-02-16T08:49:39.522Z,100.00
2023-02-16T08:52:07.119Z,100.00
2023-02-16T08:54:34.772Z,100.00
2023-02-16T08:57:03.205Z,100.00
2023-02-16T08:59:31.375Z,100.00
2023-02-16T09:02:00.135Z,100.00
2023-02-16T09:04:29.465Z,100.00
2023-02-16T09:06:58.544Z,100.00
2023-02-16T09:09:27.536Z,100.00
2023-02-16T09:11:55.086Z,100.00
2023-02-16T09:14:23.193Z,100.00
2023-02-16T09:16:50.832Z,100.00
2023-02-16T09:19:21.008Z,100.00
2023-02-16T09:21:51.130Z,100.00
2023-02-16T09:24:19.276Z,100.00
2023-02-16T09:26:49.871Z,100.00
2023-02-16T09:29:18.329Z,100.00
2023-02-16T09:31:46.451Z,100.00
2023-02-16T09:34:14.028Z,100.00
2023-02-16T09:36:41.621Z,100.00
2023-02-16T09:39:09.188Z,100.00
2023-02-16T09:42:06.736Z,100.00
2023-02-16T09:44:45.099Z,100.00
2023-02-16T09:47:33.488Z,100.00
2023-02-16T09:50:04.648Z,100.00
2023-02-16T09:52:37.178Z,100.00
2023-02-16T09:55:20.843Z,100.00
2023-02-16T09:58:08.224Z,100.00
2023-02-16T10:00:53.994Z,100.00
2023-02-16T10:03:49.469Z,100.00
2023-02-16T10:06:34.193Z,100.00
2023-02-16T10:09:09.894Z,100.00
2023-02-16T10:11:49.192Z,100.00
2023-02-16T10:14:31.893Z,100.00
2023-02-16T10:17:24.165Z,100.00
2023-02-16T10:20:14.036Z,100.00
2023-02-16T10:23:15.752Z,100.00
2023-02-16T10:25:55.709Z,100.00
2023-02-16T10:28:43.300Z,100.00
2023-02-16T10:31:18.577Z,100.00
2023-02-16T10:33:58.797Z,100.00
2023-02-16T10:36:38.316Z,100.00
2023-02-16T10:39:27.951Z,100.00
2023-02-16T10:42:24.394Z,100.00
2023-02-16T10:45:02.220Z,100.00
2023-02-16T10:47:42.110Z,100.00
2023-02-16T10:50:30.147Z,100.00
2023-02-16T10:53:06.755Z,100.00
2023-02-16T10:55:34.346Z,100.00
2023-02-16T10:58:02.526Z,100.00
2023-02-16T11:00:50.302Z,100.00
2023-02-16T11:03:21.488Z,100.00
2023-02-16T11:05:49.222Z,100.00
2023-02-16T11:08:17.679Z,100.00
2023-02-16T11:10:48.357Z,100.00
2023-02-16T11:13:37.661Z,100.00
2023-02-16T11:16:11.156Z,100.00
2023-02-16T11:18:45.415Z,100.00
2023-02-16T11:21:13.441Z,100.00
2023-02-16T11:23:57.499Z,100.00
2023-02-16T11:26:26.296Z,100.00
2023-02-16T11:28:53.780Z,100.00
2023-02-16T11:31:33.424Z,100.00
2023-02-16T11:34:08.837Z,100.00
2023-02-16T11:36:41.450Z,100.00
2023-02-16T11:39:20.025Z,100.00
2023-02-16T11:41:58.564Z,100.00
2023-02-16T11:44:36.056Z,100.00
2023-02-16T11:47:08.798Z,100.00
2023-02-16T11:49:40.400Z,100.00
2023-02-16T11:52:29.657Z,100.00
2023-02-16T11:54:58.971Z,100.00
2023-02-16T11:57:32.240Z,100.00
2023-02-16T12:00:02.201Z,100.00
2023-02-16T12:02:52.217Z,100.00
2023-02-16T12:05:26.267Z,100.00
2023-02-16T12:07:53.777Z,100.00
2023-02-16T12:10:38.472Z,100.00
2023-02-16T12:13:25.886Z,100.00
2023-02-16T12:15:59.062Z,100.00
2023-02-16T12:18:53.866Z,100.00
2023-02-16T12:21:39.847Z,100.00
2023-02-16T12:24:23.895Z,100.00
2023-02-16T12:26:57.070Z,100.00
2023-02-16T12:29:54.003Z,100.00
2023-02-16T12:32:43.139Z,100.00
2023-02-16T12:35:48.177Z,100.00
2023-02-16T12:38:47.300Z,100.00
2023-02-16T12:41:46.144Z,100.00
2023-02-16T12:44:25.188Z,100.00
2023-02-16T12:47:00.955Z,100.00
2023-02-16T12:49:36.711Z,100.00
2023-02-16T12:52:12.435Z,100.00
2023-02-16T12:54:55.530Z,100.00
2023-02-16T12:57:26.324Z,100.00
2023-02-16T13:00:04.304Z,100.00
2023-02-16T13:02:40.662Z,100.00
2023-02-16T13:05:18.301Z,100.00
2023-02-16T13:07:49.209Z,100.00
2023-02-16T13:10:54.918Z,100.00
2023-02-16T13:13:27.345Z,100.00
2023-02-16T13:16:40.076Z,100.00
2023-02-16T13:19:12.607Z,100.00
2023-02-16T13:21:58.935Z,100.00
2023-02-16T13:24:46.993Z,100.00
2023-02-16T13:27:36.047Z,100.00
2023-02-16T13:30:36.898Z,100.00
2023-02-16T13:33:37.607Z,100.00
2023-02-16T13:36:28.198Z,100.00
2023-02-16T13:39:24.834Z,100.00
2023-02-16T13:41:55.731Z,100.00
2023-02-16T13:44:28.245Z,100.00
2023-02-16T13:46:56.845Z,100.00
2023-02-16T13:49:40.394Z,100.00
2023-02-16T13:52:08.994Z,100.00
2023-02-16T13:54:40.268Z,100.00
2023-02-16T13:57:14.670Z,100.00
2023-02-16T13:59:58.443Z,100.00
2023-02-16T14:02:54.611Z,100.00
2023-02-16T14:05:26.344Z,100.00
2023-02-16T14:08:15.141Z,100.00
2023-02-16T14:10:53.278Z,100.00
2023-02-16T14:13:39.093Z,100.00
2023-02-16T14:16:12.158Z,100.00
2023-02-16T14:18:43.181Z,100.00
2023-02-16T14:21:32.286Z,100.00
2023-02-16T14:24:03.274Z,100.00
2023-02-16T14:26:32.673Z,100.00
2023-02-16T14:29:12.651Z,100.00
2023-02-16T14:31:51.155Z,100.00
2023-02-16T14:34:26.897Z,100.00
2023-02-16T14:37:19.193Z,100.00
2023-02-16T14:40:06.847Z,100.00
2023-02-16T14:42:35.955Z,100.00
2023-02-16T14:45:30.354Z,100.00
2023-02-16T14:48:03.055Z,100.00
2023-02-16T14:51:10.029Z,100.00
2023-02-16T14:54:22.147Z,100.00
2023-02-16T14:56:51.974Z,100.00
2023-02-16T14:59:28.444Z,100.00
2023-02-16T15:01:56.514Z,100.00
2023-02-16T15:04:29.231Z,100.00
2023-02-16T15:06:59.635Z,100.00
2023-02-16T15:09:31.380Z,100.00
2023-02-16T15:12:21.875Z,100.00
2023-02-16T15:14:59.811Z,100.00
2023-02-16T15:17:38.240Z,100.00
2023-02-16T15:20:25.537Z,100.00
2023-02-16T15:22:56.161Z,100.00
2023-02-16T15:25:33.977Z,100.00
2023-02-16T15:28:10.711Z,100.00
2023-02-16T15:30:41.303Z,100.00
2023-02-16T15:33:26.845Z,100.00
2023-02-16T15:36:09.051Z,100.00
2023-02-16T15:38:39.853Z,100.00
2023-02-16T15:41:24.476Z,100.00
2023-02-16T15:43:52.353Z,100.00
2023-02-16T15:46:41.265Z,100.00
2023-02-16T15:49:22.466Z,100.00
2023-02-16T15:51:54.091Z,100.00
2023-02-16T15:54:28.622Z,100.00
2023-02-16T15:57:01.132Z,100.00
2023-02-16T15:59:35.791Z,100.00
2023-02-16T16:02:17.568Z,100.00
2023-02-16T16:04:55.365Z,100.00
2023-02-16T16:07:28.343Z,100.00
2023-02-16T16:10:00.596Z,100.00
2023-02-16T16:12:28.988Z,100.00
2023-02-16T16:15:02.143Z,100.00
2023-02-16T16:17:33.300Z,100.00
2023-02-16T16:20:30.774Z,100.00
2023-02-16T16:23:14.181Z,100.00
2023-02-16T16:25:47.527Z,100.00
2023-02-16T16:28:34.941Z,100.00
2023-02-16T16:31:15.792Z,100.00
2023-02-16T16:33:59.974Z,100.00
2023-02-16T16:36:32.061Z,100.00
2023-02-16T16:39:11.448Z,100.00
2023-02-16T16:41:40.638Z,100.00
2023-02-16T16:44:13.474Z,100.00
2023-02-16T16:46:41.151Z,100.00
2023-02-16T16:49:15.936Z,100.00
2023-02-16T16:51:44.105Z,100.00
2023-02-16T16:54:49.116Z,100.00
2023-02-16T16:57:21.502Z,100.00
2023-02-16T16:59:48.971Z,100.00
2023-02-16T17:02:16.564Z,100.00
2023-02-16T17:04:44.222Z,100.00
2023-02-16T17:07:11.680Z,99.76
2023-02-16T17:09:39.229Z,97.77
2023-02-16T17:12:07.268Z,97.67
2023-02-16T17:14:34.860Z,96.43
2023-02-16T17:17:02.337Z,96.55
2023-02-16T17:19:31.025Z,93.97
2023-02-16T17:21:58.462Z,95.02
2023-02-16T17:24:26.842Z,95.59
2023-02-16T17:26:54.231Z,96.20
2023-02-16T17:29:22.747Z,98.34
2023-02-16T17:31:50.805Z,96.36
2023-02-16T17:34:18.438Z,96.87
2023-02-16T17:36:45.927Z,98.21
2023-02-16T17:39:13.579Z,100.00
2023-02-16T17:41:41.120Z,100.00
2023-02-16T17:44:08.628Z,100.00
2023-02-16T17:46:36.053Z,100.00
2023-02-16T17:49:03.613Z,100.00
2023-02-16T17:51:32.350Z,100.00
2023-02-16T17:54:00.124Z,100.00
2023-02-16T17:56:27.557Z,100.00
2023-02-16T17:58:55.130Z,100.00
2023-02-16T18:01:22.752Z,100.00
2023-02-16T18:03:50.697Z,96.86
2023-02-16T18:06:20.877Z,96.08
2023-02-16T18:08:48.555Z,93.02
2023-02-16T18:11:16.089Z,90.71
2023-02-16T18:13:43.715Z,91.78
2023-02-16T18:16:18.944Z,90.26
2023-02-16T18:18:46.437Z,89.31
2023-02-16T18:21:14.107Z,88.86
2023-02-16T18:23:42.107Z,88.79
2023-02-16T18:26:13.187Z,89.23
2023-02-16T18:28:40.757Z,88.61
2023-02-16T18:31:08.641Z,90.98
2023-02-16T18:33:36.434Z,93.07
2023-02-16T18:36:05.735Z,95.01
2023-02-16T18:38:33.506Z,95.70
2023-02-16T18:41:01.035Z,97.13
2023-02-16T18:43:28.544Z,98.50
2023-02-16T18:45:56.018Z,97.62
2023-02-16T18:48:23.618Z,93.88
2023-02-16T18:50:51.066Z,89.55
2023-02-16T18:53:18.633Z,88.49
2023-02-16T18:55:46.055Z,88.00
2023-02-16T18:58:15.073Z,87.46
2023-02-16T19:00:42.823Z,87.67
2023-02-16T19:03:10.449Z,92.02
2023-02-16T19:05:37.873Z,92.69
2023-02-16T19:08:06.247Z,95.16
2023-02-16T19:10:33.961Z,94.54
2023-02-16T19:13:02.290Z,98.30
2023-02-16T19:15:29.994Z,100.00
2023-02-16T19:17:57.572Z,100.00
2023-02-16T19:20:25.718Z,100.00
2023-02-16T19:22:56.265Z,100.00
2023-02-16T19:25:24.024Z,100.00
2023-02-16T19:27:51.449Z,100.00
2023-02-16T19:30:21.717Z,100.00
2023-02-16T19:32:49.297Z,100.00
2023-02-16T19:35:16.837Z,100.00
2023-02-16T19:37:44.388Z,100.00
2023-02-16T19:40:12.658Z,100.00
2023-02-16T19:42:40.232Z,100.00
2023-02-16T19:45:08.620Z,100.00
2023-02-16T19:47:36.150Z,100.00
2023-02-16T19:50:03.936Z,100.00
2023-02-16T19:52:31.460Z,100.00
2023-02-16T19:54:58.980Z,100.00
2023-02-16T19:57:26.492Z,100.00
2023-02-16T19:59:53.957Z,100.00
2023-02-16T20:02:21.571Z,100.00
2023-02-16T20:04:49.232Z,100.00
2023-02-16T20:07:16.777Z,100.00
2023-02-16T20:09:44.190Z,100.00
2023-02-16T20:12:13.538Z,100.00
2023-02-16T20:14:41.020Z,100.00
2023-02-16T20:17:08.536Z,100.00
2023-02-16T20:19:35.981Z,100.00
2023-02-16T20:22:03.521Z,100.00
2023-02-16T20:24:30.978Z,100.00
2023-02-16T20:26:58.555Z,100.00
2023-02-16T20:29:25.992Z,100.00
2023-02-16T20:31:56.573Z,100.00
2023-02-16T20:34:27.453Z,100.00
2023-02-16T20:36:55.586Z,100.00
2023-02-16T20:39:23.745Z,100.00
2023-02-16T20:41:51.315Z,100.00
2023-02-16T20:44:18.901Z,100.00
2023-02-16T20:46:46.409Z,100.00
2023-02-16T20:49:14.599Z,100.00
2023-02-16T20:51:42.839Z,100.00
2023-02-16T20:54:11.722Z,100.00
2023-02-16T20:56:39.419Z,100.00
2023-02-16T20:59:06.872Z,100.00
2023-02-16T21:01:51.940Z,100.00
2023-02-16T21:04:20.472Z,100.00
2023-02-16T21:06:48.218Z,100.00
2023-02-16T21:09:16.308Z,100.00
2023-02-16T21:11:44.076Z,100.00
2023-02-16T21:14:12.307Z,100.00
2023-02-16T21:16:41.195Z,100.00
2023-02-16T21:19:20.968Z,100.00
2023-02-16T21:21:51.435Z,100.00
2023-02-16T21:24:19.002Z,100.00
2023-02-16T21:26:46.499Z,100.00
2023-02-16T21:29:14.157Z,100.00
2023-02-16T21:31:41.781Z,100.00
2023-02-16T21:34:09.398Z,100.00
2023-02-16T21:36:38.300Z,100.00
2023-02-16T21:39:06.309Z,100.00
2023-02-16T21:41:33.839Z,100.00
2023-02-16T21:44:11.438Z,100.00
2023-02-16T21:46:42.029Z,100.00
2023-02-16T21:49:13.176Z,100.00
2023-02-16T21:51:42.288Z,100.00
2023-02-16T21:54:14.781Z,100.00
2023-02-16T21:56:50.361Z,100.00
2023-02-16T21:59:20.103Z,100.00
2023-02-16T22:01:51.181Z,100.00
2023-02-16T22:04:22.835Z,100.00
2023-02-16T22:06:51.572Z,100.00
2023-02-16T22:09:23.564Z,100.00
2023-02-16T22:11:51.915Z,100.00
2023-02-16T22:14:19.782Z,100.00
2023-02-16T22:16:48.195Z,100.00
2023-02-16T22:19:18.105Z,100.00
2023-02-16T22:21:47.255Z,100.00
2023-02-16T22:24:17.141Z,100.00
2023-02-16T22:26:47.825Z,100.00
2023-02-16T22:29:15.954Z,100.00
2023-02-16T22:31:45.680Z,100.00
2023-02-16T22:34:16.262Z,100.00
2023-02-16T22:36:43.846Z,100.00
2023-02-16T22:39:13.733Z,100.00
2023-02-16T22:41:41.393Z,100.00
2023-02-16T22:44:11.016Z,100.00
2023-02-16T22:46:38.900Z,100.00
2023-02-16T22:49:06.329Z,100.00
2023-02-16T22:51:33.933Z,100.00
2023-02-16T22:54:02.242Z,100.00
2023-02-16T22:56:31.275Z,100.00
2023-02-16T22:58:59.990Z,100.00
2023-02-16T23:01:30.320Z,100.00
2023-02-16T23:04:00.474Z,100.00
2023-02-16T23:06:34.344Z,100.00
2023-02-16T23:09:04.152Z,100.00
2023-02-16T23:11:32.832Z,100.00
2023-02-16T23:14:00.362Z,100.00
2023-02-16T23:16:28.626Z,100.00
2023-02-16T23:18:58.094Z,100.00
2023-02-16T23:21:29.616Z,100.00
2023-02-16T23:23:58.415Z,100.00
2023-02-16T23:26:28.081Z,100.00
2023-02-16T23:28:58.364Z,100.00
2023-02-16T23:31:26.252Z,100.00
2023-02-16T23:33:56.235Z,100.00
2023-02-16T23:36:23.853Z,100.00
2023-02-16T23:38:51.247Z,100.00
2023-02-16T23:41:19.046Z,100.00
2023-02-16T23:43:46.519Z,100.00
2023-02-16T23:46:14.007Z,100.00
2023-02-16T23:48:41.464Z,100.00
2023-02-16T23:51:11.727Z,100.00
2023-02-16T23:53:39.914Z,100.00
2023-02-16T23:56:24.511Z,100.00
2023-02-16T23:58:52.705Z,100.00
